X  Close Metar Aviation Weather Data        KDLZ Delaware Municipal Airport
Temperature
59°F Temperature
34°F Dewpoint
39% Humidity



Wind
14 MPH
22 KM/H
6 M/S
12 KTS



220°
SW
Current Conditions

Cloudy Cloudy
Pressure 1015 (hPa) - 29.96 (inHg)
Visibility 10 (mile) - 16 (km)
Airport
Airport-code KDLZ

Location: Delaware Municipal Airport
Distance: 18 (mi)

Metar:
METAR KDLZ 231715Z AUTO 22012KT 10SM OVC100 15/01 A2997 RMK AO2

Time: 04-23-2024 1:15 pm EDT